AirNav   Air Wisconsin pilot careers
 
 350 users online  

1KS Linn County Airport
Pleasanton, Kansas, USA

GOING TO PLEASANTON?


FAA INFORMATION EFFECTIVE 29 MARCH 2018

Location

FAA Identifier: 1KS
Lat/Long: 38-10-24.3600N / 094-41-25.1700W
38-10.406000N / 094-41.419500W
38.1734333 / -94.6903250
(estimated)
Elevation: 860 ft. / 262 m (estimated)
From city: 1 mile NW of PLEASANTON, KS
Time zone: UTC -5 (UTC -6 during Standard Time)
Zip code: 66767

Airport Operations

Airport use: Open to the public
Activation date: 11/2014
Control tower: no
ARTCC: KANSAS CITY CENTER
FSS: WICHITA FLIGHT SERVICE STATION
NOTAMs facility: ICT (NOTAM-D service available)
Attendance: UNATNDD
Wind indicator: yes
Segmented circle: no

Airport Communications

CTAF/UNICOM: 122.8

Nearby radio navigation aids

VOR radial/distance  VOR name  Freq  Var
BUMr231/11.2BUTLER VORTAC115.9007E

Airport Services

Parking: tiedowns

Runway Information

Runway 18/36

Dimensions: 3000 x 60 ft. / 914 x 18 m
Surface: asphalt, in excellent condition
RUNWAY 18  RUNWAY 36
Latitude: 38-10.653333N38-10.158667N
Longitude: 094-41.420667W094-41.418333W
Elevation: 860.0 ft.830.0 ft.
Traffic pattern: rightleft
Markings: basic, in good conditionbasic, in good condition
Obstructions: 25 ft. tree, 1130 ft. from runway, 138 ft. left of centerline, 37:1 slope to clearnone

Airport Ownership and Management from official FAA records

Ownership: Publicly-owned
Owner: LINN COUNTY
306 MAIN STREET
MOUND CITY, KS 66056
Phone 913-795-2274
Manager: DENNIS ARNOLD
306 MAIN STREET
MOUND CITY, KS 66056
Phone 913-795-2274

Additional Remarks

WILDLIFE ON AND INVOF RUNWAY

Instrument Procedures

There are no published instrument procedures at 1KS.

Some nearby airports with instrument procedures:

KBUM - Butler Memorial Airport (18 nm NE)
KFSK - Fort Scott Municipal Airport (23 nm S)
K81 - Miami County Airport (25 nm NW)
KNVD - Nevada Municipal Airport (27 nm SE)
KLRY - Lawrence Smith Memorial Airport (31 nm NE)
 
Loc | Ops | Rwys | IFR | FBO | Links
Com | Nav | Svcs | Stats | Notes

AirNav Hotels Sweepstakes
 
Aerial photo
WARNING: Photo may not be current or correct
Aerial photo of 1KS (Linn County Airport)
Photo taken 19-Aug-2015
looking south.

Do you have a better or more recent aerial photo of Linn County Airport that you would like to share? If so, please send us your photo.

 
Airport distance calculator
Flying to Linn County Airport? Find the distance to fly.

From to 1KS

Sunrise and sunset
Times for 22-Apr-2018
 Local
(UTC-5)
 Zulu
(UTC)
Morning civil twilight06:0711:07
Sunrise06:3511:35
Sunset20:0001:00
Evening civil twilight20:2801:28

Current date and time
Zulu (UTC)  22-Apr-2018 06:53:37
Local (UTC-5)  22-Apr-2018 01:53:37
 
METAR
KLRY 
31nm NE 
220635Z AUTO 07007KT 10SM OVC070 13/00 A3013 RMK AO2
KOWI 
34nm NW 
220640Z AUTO 34007KT 9SM FEW039 FEW047 OVC060 09/08 A3009 RMK AO2
KIXD 
40nm N 
220553Z AUTO 05005KT 10SM SCT070 BKN085 OVC100 13/00 A3012 RMK AO2 SLP198 T01280000 10172 20106 401890083 57009
KOJC 
41nm N 
220553Z AUTO 05007KT 10SM OVC100 12/M01 A3012 RMK AO2 SLP196 T01221011 10161 20122 401780089 55006
KPTS 
43nm S 
220635Z AUTO 04005KT 10SM OVC042 11/10 A3004 RMK AO2 T01050098
KCNU 
48nm SW 
220552Z AUTO 36007KT 5SM -RA BR OVC042 09/08 A3009 RMK AO2 SLP187 P0003 60015 T00890078 10089 20083 401500083 56013
KGLY 
49nm E 
220635Z AUTO 07009KT 10SM FEW050 OVC070 13/03 A3010 RMK AO2
KLXT 
50nm N 
220553Z AUTO 06008KT 10SM OVC090 13/M01 A3013 RMK AO2 SLP200 T01281006 10172 20128 401890094 58007
TAF
KIXD 
40nm N 
220520Z 2206/2306 01008KT P6SM OVC070 FM221300 03013KT P6SM SCT025 OVC040 FM230000 01008KT P6SM OVC050
KCNU 
48nm SW 
220520Z 2206/2306 01008KT 6SM -SHRA OVC040 TEMPO 2206/2210 4SM -SHRA BR FM221200 02010KT 6SM -SHRA OVC015 FM221700 02011KT P6SM VCSH OVC025 FM222000 03008KT P6SM VCSH OVC035 FM230000 02010KT P6SM OVC045
NOTAMs
Click for the latest NOTAMs
NOTAMs are issued by the DoD/FAA and will open in a separate window not controlled by AirNav.

 

 
 

Would you like to see your business listed on this page?

 If your business provides an interesting product or service to pilots, flight crews, aircraft, or users of the Linn County Airport, you should consider listing it here.  To start the listing process, click on the button below
 
Add a business
 

Other Pages about Linn County Airport

Update a link
 
Copyright © AirNav, LLC. All rights reserved. Privacy Policy  Contact